Time;durP1;ratioP1;P1;durP2;ratioP2;P2;SDS_P1;SDS_P2;PMS_P1;PMS_P2;Temp;Humidity;BMP_temperature;BMP_pressure;BME280_temperature;BME280_humidity;BME280_pressure;Samples;Min_cycle;Max_cycle;Signal;HPM_P1;HPM_P2
2024/02/14 00:00:57;;;;;;;;;;;;;;;;;;5096039;28;19948;-72
2024/02/14 00:03:24;;;;;;;;;;;;;;;;;;5095538;28;19978;-72
2024/02/14 00:05:51;;;;;;;;;;;;;;;;;;5077533;28;19927;-72
2024/02/14 00:08:17;;;;;;;;;;;;;;;;;;5095457;28;19912;-72
2024/02/14 00:10:44;;;;;;;;;;;;;;;;;;5095871;28;19969;-73
2024/02/14 00:13:11;;;;;;;;;;;;;;;;;;5095806;28;20284;-73
2024/02/14 00:15:37;;;;;;;;;;;;;;;;;;5095356;28;19915;-72
2024/02/14 00:18:03;;;;;;;;;;;;;;;;;;5095721;28;19908;-71
2024/02/14 00:20:29;;;;;;;;;;;;;;;;;;5095911;28;20309;-72
2024/02/14 00:22:55;;;;;;;;;;;;;;;;;;5095090;28;19983;-71
2024/02/14 00:25:21;;;;;;;;;;;;;;;;;;5095424;28;19920;-71
2024/02/14 00:27:47;;;;;;;;;;;;;;;;;;5095440;28;19908;-72
2024/02/14 00:30:13;;;;;;;;;;;;;;;;;;5095059;28;19908;-71
2024/02/14 00:32:39;;;;;;;;;;;;;;;;;;5095373;28;19908;-72
2024/02/14 00:35:05;;;;;;;;;;;;;;;;;;5077214;28;19915;-72
2024/02/14 00:37:33;;;;;;;;;;;;;;;;;;5094938;28;19912;-72
2024/02/14 00:39:59;;;;;;;;;;;;;;;;;;5095970;28;20347;-72
2024/02/14 00:42:25;;;;;;;;;;;;;;;;;;5095151;28;19908;-72
2024/02/14 00:44:51;;;;;;;;;;;;;;;;;;5094660;28;19916;-72
2024/02/14 00:47:17;;;;;;;;;;;;;;;;;;5095380;28;19913;-72
2024/02/14 00:49:43;;;;;;;;;;;;;;;;;;5094214;28;19961;-71
2024/02/14 00:52:09;;;;;;;;;;;;;;;;;;5094606;28;19914;-71
2024/02/14 00:54:35;;;;;;;;;;;;;;;;;;5095524;28;20007;-72
2024/02/14 00:57:01;;;;;;;;;;;;;;;;;;5094884;28;20384;-71
2024/02/14 00:59:27;;;;;;;;;;;;;;;;;;5094442;28;20006;-71
2024/02/14 01:01:53;;;;;;;;;;;;;;;;;;5094773;28;19915;-72
2024/02/14 01:04:19;;;;;;;;;;;;;;;;;;5094460;28;20353;-71
2024/02/14 01:06:45;;;;;;;;;;;;;;;;;;5094936;28;19973;-72
2024/02/14 01:09:11;;;;;;;;;;;;;;;;;;5094647;28;19912;-72
2024/02/14 01:11:38;;;;;;;;;;;;;;;;;;5094723;28;19909;-71
2024/02/14 01:14:04;;;;;;;;;;;;;;;;;;5094776;28;20360;-71
2024/02/14 01:16:30;;;;;;;;;;;;;;;;;;5094562;28;19915;-71
2024/02/14 01:18:56;;;;;;;;;;;;;;;;;;5094509;28;19999;-72
2024/02/14 01:21:22;;;;;;;;;;;;;;;;;;5094483;28;19908;-72
2024/02/14 01:23:48;;;;;;;;;;;;;;;;;;5094460;28;19961;-73
2024/02/14 01:26:14;;;;;;;;;;;;;;;;;;5075876;28;19916;-72
2024/02/14 01:28:40;;;;;;;;;;;;;;;;;;5094905;28;19915;-72
2024/02/14 01:31:06;;;;;;;;;;;;;;;;;;5094892;28;20403;-72
2024/02/14 01:33:33;;;;;;;;;;;;;;;;;;5093873;28;19991;-73
2024/02/14 01:35:58;;;;;;;;;;;;;;;;;;5094316;28;19970;-73
2024/02/14 01:38:24;;;;;;;;;;;;;;;;;;5094233;28;20233;-72
2024/02/14 01:40:50;;;;;;;;;;;;;;;;;;5093776;28;19908;-72
2024/02/14 01:43:16;;;;;;;;;;;;;;;;;;5094077;28;19995;-72
2024/02/14 01:45:43;;;;;;;;;;;;;;;;;;5094049;28;19948;-73
2024/02/14 01:48:09;;;;;;;;;;;;;;;;;;5093701;28;20334;-72
2024/02/14 01:50:34;;;;;;;;;;;;;;;;;;5094113;28;19908;-73
2024/02/14 01:53:00;;;;;;;;;;;;;;;;;;5093990;28;19908;-73
2024/02/14 01:55:26;;;;;;;;;;;;;;;;;;5093668;28;19914;-73
2024/02/14 01:57:52;;;;;;;;;;;;;;;;;;5094193;28;19948;-73
2024/02/14 02:00:19;;;;;;;;;;;;;;;;;;5094168;28;19954;-73
2024/02/14 02:02:46;;;;;;;;;;;;;;;;;;5093607;28;19914;-73
2024/02/14 02:05:13;;;;;;;;;;;;;;;;;;5094426;28;19925;-73
2024/02/14 02:07:42;;;;;;;;;;;;;;;;;;5093827;28;19912;-73
2024/02/14 02:10:08;;;;;;;;;;;;;;;;;;5093877;28;19931;-73
2024/02/14 02:12:34;;;;;;;;;;;;;;;;;;5094401;28;19935;-73
2024/02/14 02:15:00;;;;;;;;;;;;;;;;;;5093359;28;19981;-73
2024/02/14 02:17:26;;;;;;;;;;;;;;;;;;5093849;28;19908;-72
2024/02/14 02:19:52;;;;;;;;;;;;;;;;;;5094022;28;19908;-72
2024/02/14 02:22:18;;;;;;;;;;;;;;;;;;5093299;28;19912;-73
2024/02/14 02:24:45;;;;;;;;;;;;;;;;;;5075561;28;19908;-72
2024/02/14 02:27:13;;;;;;;;;;;;;;;;;;5093681;28;20016;-72
2024/02/14 02:29:39;;;;;;;;;;;;;;;;;;5093212;28;19909;-71
2024/02/14 02:32:06;;;;;;;;;;;;;;;;;;5075517;28;19912;-71
2024/02/14 02:34:32;;;;;;;;;;;;;;;;;;5075429;28;19914;-71
2024/02/14 02:36:58;;;;;;;;;;;;;;;;;;5093147;28;19999;-71
2024/02/14 02:39:24;;;;;;;;;;;;;;;;;;5093770;28;19965;-71
2024/02/14 02:41:50;;;;;;;;;;;;;;;;;;5093489;28;19908;-72
2024/02/14 02:44:16;;;;;;;;;;;;;;;;;;5093161;28;19962;-71
2024/02/14 02:46:45;;;;;;;;;;;;;;;;;;5093532;28;20372;-71
2024/02/14 02:49:13;;;;;;;;;;;;;;;;;;5093784;28;20367;-71
2024/02/14 02:51:39;;;;;;;;;;;;;;;;;;5093049;28;19908;-71
2024/02/14 02:54:07;;;;;;;;;;;;;;;;;;5093354;28;19915;-72
2024/02/14 02:56:33;;;;;;;;;;;;;;;;;;5075229;28;19908;-71
2024/02/14 02:58:59;;;;;;;;;;;;;;;;;;5092943;28;19974;-72
2024/02/14 03:01:30;;;;;;;;;;;;;;;;;;5093612;28;19908;-72
2024/02/14 03:03:58;;;;;;;;;;;;;;;;;;5092904;28;19934;-72
2024/02/14 03:06:25;;;;;;;;;;;;;;;;;;5093087;28;20376;-72
2024/02/14 03:08:52;;;;;;;;;;;;;;;;;;5093610;28;19919;-72
2024/02/14 03:11:18;;;;;;;;;;;;;;;;;;5074829;28;19936;-72
2024/02/14 03:13:44;;;;;;;;;;;;;;;;;;5095958;28;19956;-71
2024/02/14 03:16:11;;;;;;;;;;;;;;;;;;5078634;28;20329;-71
2024/02/14 03:18:38;;;;;;;;;;;;;;;;;;5096865;28;20003;-72
2024/02/14 03:21:06;;;;;;;;;;;;;;;;;;5096824;28;19908;-72
2024/02/14 03:23:32;;;;;;;;;;;;;;;;;;5097005;28;19931;-71
2024/02/14 03:25:58;;;;;;;;;;;;;;;;;;5096304;28;19916;-72
2024/02/14 03:28:25;;;;;;;;;;;;;;;;;;5096964;28;20406;-71
2024/02/14 03:30:52;;;;;;;;;;;;;;;;;;5096904;28;19959;-71
2024/02/14 03:33:17;;;;;;;;;;;;;;;;;;5096138;28;19962;-71
2024/02/14 03:35:43;;;;;;;;;;;;;;;;;;5097111;28;20276;-71
2024/02/14 03:38:09;;;;;;;;;;;;;;;;;;5096472;28;19957;-72
2024/02/14 03:40:37;;;;;;;;;;;;;;;;;;5077849;28;19915;-71
2024/02/14 03:43:03;;;;;;;;;;;;;;;;;;5096640;28;19908;-72
2024/02/14 03:45:29;;;;;;;;;;;;;;;;;;5078166;28;19971;-72
2024/02/14 03:47:56;;;;;;;;;;;;;;;;;;5095836;28;19908;-71
2024/02/14 03:50:22;;;;;;;;;;;;;;;;;;5096166;28;19908;-72
2024/02/14 03:52:48;;;;;;;;;;;;;;;;;;5096452;28;19912;-72
2024/02/14 03:55:16;;;;;;;;;;;;;;;;;;5095690;28;19919;-72
2024/02/14 03:57:45;;;;;;;;;;;;;;;;;;5096120;28;19911;-72
2024/02/14 04:00:11;;;;;;;;;;;;;;;;;;5095629;28;19919;-72
2024/02/14 04:02:37;;;;;;;;;;;;;;;;;;5096070;28;19908;-72
2024/02/14 04:05:03;;;;;;;;;;;;;;;;;;5095693;28;19920;-71
2024/02/14 04:07:32;;;;;;;;;;;;;;;;;;5095440;28;19909;-72
2024/02/14 04:09:58;;;;;;;;;;;;;;;;;;5095869;28;20361;-72
2024/02/14 04:12:24;;;;;;;;;;;;;;;;;;5095736;28;20045;-72
2024/02/14 04:14:50;;;;;;;;;;;;;;;;;;5095782;28;20365;-72
2024/02/14 04:17:16;;;;;;;;;;;;;;;;;;5095753;28;19908;-72
2024/02/14 04:19:42;;;;;;;;;;;;;;;;;;5096200;28;20003;-71
2024/02/14 04:22:08;;;;;;;;;;;;;;;;;;5095263;28;19909;-71
2024/02/14 04:24:34;;;;;;;;;;;;;;;;;;5095840;28;19912;-72
2024/02/14 04:27:02;;;;;;;;;;;;;;;;;;5095458;28;20384;-71
2024/02/14 04:29:30;;;;;;;;;;;;;;;;;;5076997;28;19914;-71
2024/02/14 04:31:56;;;;;;;;;;;;;;;;;;5095376;28;19943;-72
2024/02/14 04:34:22;;;;;;;;;;;;;;;;;;5095378;28;20253;-72
2024/02/14 04:36:47;;;;;;;;;;;;;;;;;;5094908;28;19969;-72
2024/02/14 04:39:13;;;;;;;;;;;;;;;;;;5095229;28;19914;-72
2024/02/14 04:41:39;;;;;;;;;;;;;;;;;;5095232;28;19908;-72
2024/02/14 04:44:08;;;;;;;;;;;;;;;;;;5094806;28;20003;-72
2024/02/14 04:46:35;;;;;;;;;;;;;;;;;;5095088;28;19916;-72
2024/02/14 04:49:02;;;;;;;;;;;;;;;;;;5095084;28;19912;-72
2024/02/14 04:51:28;;;;;;;;;;;;;;;;;;5094761;28;20248;-72
2024/02/14 04:53:58;;;;;;;;;;;;;;;;;;5095023;28;19915;-72
2024/02/14 04:56:24;;;;;;;;;;;;;;;;;;5076600;28;19962;-72
2024/02/14 04:58:50;;;;;;;;;;;;;;;;;;5094871;28;19912;-72
2024/02/14 05:01:17;;;;;;;;;;;;;;;;;;5076747;28;19908;-72
2024/02/14 05:03:44;;;;;;;;;;;;;;;;;;5094555;28;19907;-72
2024/02/14 05:06:09;;;;;;;;;;;;;;;;;;5094614;28;19959;-72
2024/02/14 05:08:35;;;;;;;;;;;;;;;;;;5094737;28;19915;-72
2024/02/14 05:11:01;;;;;;;;;;;;;;;;;;5094491;28;19912;-72
2024/02/14 05:13:27;;;;;;;;;;;;;;;;;;5076442;28;20010;-72
2024/02/14 05:15:53;;;;;;;;;;;;;;;;;;5094589;28;20270;-72
2024/02/14 05:18:19;;;;;;;;;;;;;;;;;;5094133;28;19909;-72
2024/02/14 05:20:46;;;;;;;;;;;;;;;;;;5076366;28;19908;-72
2024/02/14 05:23:12;;;;;;;;;;;;;;;;;;5094493;28;19912;-72
2024/02/14 05:25:39;;;;;;;;;;;;;;;;;;5093999;28;19939;-72
2024/02/14 05:28:05;;;;;;;;;;;;;;;;;;5094892;28;19915;-72
2024/02/14 05:30:31;;;;;;;;;;;;;;;;;;5094388;28;19912;-72
2024/02/14 05:32:57;;;;;;;;;;;;;;;;;;5075586;28;20280;-72
2024/02/14 05:35:23;;;;;;;;;;;;;;;;;;5093766;28;19915;-72
2024/02/14 05:37:50;;;;;;;;;;;;;;;;;;5094315;28;19908;-72
2024/02/14 05:40:16;;;;;;;;;;;;;;;;;;5093789;28;19908;-71
2024/02/14 05:42:43;;;;;;;;;;;;;;;;;;5094011;28;19916;-72
2024/02/14 05:45:09;;;;;;;;;;;;;;;;;;5094134;28;19919;-72
2024/02/14 05:47:35;;;;;;;;;;;;;;;;;;5093815;28;19915;-73
2024/02/14 05:50:01;;;;;;;;;;;;;;;;;;5094061;28;19912;-72
2024/02/14 05:52:27;;;;;;;;;;;;;;;;;;5075203;28;19957;-72
2024/02/14 05:54:54;;;;;;;;;;;;;;;;;;5093616;28;20016;-74
2024/02/14 05:57:20;;;;;;;;;;;;;;;;;;5094353;28;20268;-73
2024/02/14 05:59:45;;;;;;;;;;;;;;;;;;5093513;28;19909;-72
2024/02/14 06:02:12;;;;;;;;;;;;;;;;;;5092620;28;19961;-73
2024/02/14 06:04:38;;;;;;;;;;;;;;;;;;5094041;28;20310;-71
2024/02/14 06:07:06;;;;;;;;;;;;;;;;;;5075396;28;20367;-72
2024/02/14 06:09:32;;;;;;;;;;;;;;;;;;5075689;28;19908;-71
2024/02/14 06:11:58;;;;;;;;;;;;;;;;;;5094313;28;20013;-71
2024/02/14 06:14:24;;;;;;;;;;;;;;;;;;5093241;28;19962;-71
2024/02/14 06:16:50;;;;;;;;;;;;;;;;;;5093474;28;19998;-71
2024/02/14 06:19:16;;;;;;;;;;;;;;;;;;5092632;28;20258;-71
2024/02/14 06:21:42;;;;;;;;;;;;;;;;;;5087185;28;20356;-71
2024/02/14 06:24:10;;;;;;;;;;;;;;;;;;5082802;28;20638;-68
2024/02/14 06:26:36;;;;;;;;;;;;;;;;;;5086429;28;20064;-69
2024/02/14 06:29:02;;;;;;;;;;;;;;;;;;5089579;28;19912;-69
2024/02/14 06:31:30;;;;;;;;;;;;;;;;;;5086432;28;20023;-70
2024/02/14 06:33:57;;;;;;;;;;;;;;;;;;5089417;28;19915;-70
2024/02/14 06:36:24;;;;;;;;;;;;;;;;;;5086578;28;19912;-70
2024/02/14 06:38:53;;;;;;;;;;;;;;;;;;5091316;28;20430;-71
2024/02/14 06:41:21;;;;;;;;;;;;;;;;;;5074177;28;19960;-69
2024/02/14 06:43:47;;;;;;;;;;;;;;;;;;5092104;28;19919;-69
2024/02/14 06:46:16;;;;;;;;;;;;;;;;;;5088764;28;20066;-69
2024/02/14 06:48:42;;;;;;;;;;;;;;;;;;5086544;28;19996;-68
2024/02/14 06:51:10;;;;;;;;;;;;;;;;;;5074374;28;19916;-69
2024/02/14 06:53:36;;;;;;;;;;;;;;;;;;5092867;28;19947;-68
2024/02/14 06:56:02;;;;;;;;;;;;;;;;;;5069619;28;19920;-69
2024/02/14 06:58:28;;;;;;;;;;;;;;;;;;5094339;28;19912;-70
2024/02/14 07:00:54;;;;;;;;;;;;;;;;;;5092310;28;20006;-73
2024/02/14 07:03:20;;;;;;;;;;;;;;;;;;5072519;28;20030;-71
2024/02/14 07:05:46;;;;;;;;;;;;;;;;;;5092574;28;19920;-69
2024/02/14 07:08:12;;;;;;;;;;;;;;;;;;5091591;28;19920;-71
2024/02/14 07:10:38;;;;;;;;;;;;;;;;;;5098904;28;19916;-69
2024/02/14 07:13:04;;;;;;;;;;;;;;;;;;5088814;28;19965;-70
2024/02/14 07:15:30;;;;;;;;;;;;;;;;;;5101902;27;20296;-69
2024/02/14 07:17:57;;;;;;;;;;;;;;;;;;5080788;28;19912;-70
2024/02/14 07:20:26;;;;;;;;;;;;;;;;;;5103357;28;19915;-70
2024/02/14 07:22:53;;;;;;;;;;;;;;;;;;5108833;28;19916;-69
2024/02/14 07:25:19;;;;;;;;;;;;;;;;;;5099010;28;19912;-70
2024/02/14 07:27:45;;;;;;;;;;;;;;;;;;5087781;28;19926;-70
2024/02/14 07:30:12;;;;;;;;;;;;;;;;;;5092127;28;19966;-70
2024/02/14 07:32:38;;;;;;;;;;;;;;;;;;5089639;28;19920;-71
2024/02/14 07:35:06;;;;;;;;;;;;;;;;;;5093513;28;19948;-72
2024/02/14 07:37:34;;;;;;;;;;;;;;;;;;5088048;28;19916;-70
2024/02/14 07:40:00;;;;;;;;;;;;;;;;;;5090969;28;19965;-68
2024/02/14 07:42:27;;;;;;;;;;;;;;;;;;5093530;28;20241;-70
2024/02/14 07:44:56;;;;;;;;;;;;;;;;;;5091430;28;19919;-69
2024/02/14 07:47:22;;;;;;;;;;;;;;;;;;5090175;28;19923;-69
2024/02/14 07:49:48;;;;;;;;;;;;;;;;;;5090500;28;19908;-70
2024/02/14 07:52:16;;;;;;;;;;;;;;;;;;5090903;28;20245;-70
2024/02/14 07:54:45;;;;;;;;;;;;;;;;;;5088277;28;20261;-67
2024/02/14 07:57:12;;;;;;;;;;;;;;;;;;5089822;28;19976;-68
2024/02/14 07:59:39;;;;;;;;;;;;;;;;;;5072232;28;19919;-68
2024/02/14 08:02:05;;;;;;;;;;;;;;;;;;5070699;28;19919;-69
2024/02/14 08:04:31;;;;;;;;;;;;;;;;;;5090488;28;19916;-70
2024/02/14 08:06:58;;;;;;;;;;;;;;;;;;5091904;28;19928;-67
2024/02/14 08:09:24;;;;;;;;;;;;;;;;;;5079148;28;19922;-67
2024/02/14 08:11:53;;;;;;;;;;;;;;;;;;5095052;28;19923;-68
2024/02/14 08:14:18;;;;;;;;;;;;;;;;;;5105943;28;19908;-68
2024/02/14 08:16:44;;;;;;;;;;;;;;;;;;5084583;28;19958;-67
2024/02/14 08:19:11;;;;;;;;;;;;;;;;;;5089380;28;19913;-68
2024/02/14 08:21:37;;;;;;;;;;;;;;;;;;5072669;28;19922;-69
2024/02/14 08:24:03;;;;;;;;;;;;;;;;;;5069806;28;19915;-68
2024/02/14 08:26:29;;;;;;;;;;;;;;;;;;5085434;28;19920;-68
2024/02/14 08:28:55;;;;;;;;;;;;;;;;;;5088184;28;20398;-67
2024/02/14 08:31:21;;;;;;;;;;;;;;;;;;5090438;28;19955;-69
2024/02/14 08:33:46;;;;;;;;;;;;;;;;;;5090801;28;19920;-67
2024/02/14 08:36:12;;;;;;;;;;;;;;;;;;5089638;28;19977;-68
2024/02/14 08:38:38;;;;;;;;;;;;;;;;;;5087120;28;19920;-68
2024/02/14 08:41:04;;;;;;;;;;;;;;;;;;5086874;28;20330;-69
2024/02/14 08:43:30;;;;;;;;;;;;;;;;;;5070911;28;19963;-70
2024/02/14 08:45:56;;;;;;;;;;;;;;;;;;5092877;28;19959;-70
2024/02/14 08:48:22;;;;;;;;;;;;;;;;;;5087451;28;20420;-70
2024/02/14 08:50:48;;;;;;;;;;;;;;;;;;5090960;28;20312;-69
2024/02/14 08:53:15;;;;;;;;;;;;;;;;;;5091811;28;20267;-68
2024/02/14 08:55:41;;;;;;;;;;;;;;;;;;5090871;28;19911;-71
2024/02/14 08:58:09;;;;;;;;;;;;;;;;;;5091049;28;20288;-70
2024/02/14 09:00:35;;;;;;;;;;;;;;;;;;5100576;28;19915;-70
2024/02/14 09:03:01;;;;;;;;;;;;;;;;;;5092584;28;20310;-68
2024/02/14 09:05:30;;;;;;;;;;;;;;;;;;5093451;28;19972;-68
2024/02/14 09:07:56;;;;;;;;;;;;;;;;;;5094345;28;19912;-69
2024/02/14 09:10:22;;;;;;;;;;;;;;;;;;5090711;28;19923;-70
2024/02/14 09:12:48;;;;;;;;;;;;;;;;;;5091317;28;20284;-70
2024/02/14 09:15:14;;;;;;;;;;;;;;;;;;5090657;28;20497;-69
2024/02/14 09:17:41;;;;;;;;;;;;;;;;;;5088083;28;19919;-68
2024/02/14 09:20:09;;;;;;;;;;;;;;;;;;5089032;28;19934;-69
2024/02/14 09:22:35;;;;;;;;;;;;;;;;;;5102280;28;19916;-71
2024/02/14 09:25:04;;;;;;;;;;;;;;;;;;5098086;28;19916;-70
2024/02/14 09:27:30;;;;;;;;;;;;;;;;;;5090771;28;19919;-69
2024/02/14 09:29:56;;;;;;;;;;;;;;;;;;5089830;28;19912;-70
2024/02/14 09:32:22;;;;;;;;;;;;;;;;;;5084861;28;20330;-69
2024/02/14 09:34:48;;;;;;;;;;;;;;;;;;5091296;28;19912;-71
2024/02/14 09:37:14;;;;;;;;;;;;;;;;;;5089011;28;19912;-71
2024/02/14 09:39:43;;;;;;;;;;;;;;;;;;5091193;28;19916;-71
2024/02/14 09:42:09;;;;;;;;;;;;;;;;;;5088484;28;19935;-72
2024/02/14 09:44:35;;;;;;;;;;;;;;;;;;5086098;28;20015;-73
2024/02/14 09:47:03;;;;;;;;;;;;;;;;;;5079607;28;19967;-74
2024/02/14 09:49:30;;;;;;;;;;;;;;;;;;5083824;28;19950;-73
2024/02/14 09:51:55;;;;;;;;;;;;;;;;;;5084663;28;19959;-71
2024/02/14 09:54:21;;;;;;;;;;;;;;;;;;5089287;28;20422;-70
2024/02/14 09:56:47;;;;;;;;;;;;;;;;;;5090852;28;20344;-72
2024/02/14 09:59:13;;;;;;;;;;;;;;;;;;5090348;28;20499;-71
2024/02/14 10:01:39;;;;;;;;;;;;;;;;;;5086123;28;19919;-71
2024/02/14 10:04:06;;;;;;;;;;;;;;;;;;5082539;28;19922;-69
2024/02/14 10:06:33;;;;;;;;;;;;;;;;;;5083937;28;19920;-72
2024/02/14 10:08:59;;;;;;;;;;;;;;;;;;5081970;28;19916;-71
2024/02/14 10:11:27;;;;;;;;;;;;;;;;;;5088829;28;19961;-72
2024/02/14 10:13:57;;;;;;;;;;;;;;;;;;5082750;28;19912;-74
2024/02/14 10:16:23;;;;;;;;;;;;;;;;;;5085559;28;20394;-69
2024/02/14 10:18:50;;;;;;;;;;;;;;;;;;5086515;28;20006;-70
2024/02/14 10:21:19;;;;;;;;;;;;;;;;;;5086909;28;19974;-70
2024/02/14 10:23:46;;;;;;;;;;;;;;;;;;5088150;28;19947;-71
2024/02/14 10:26:13;;;;;;;;;;;;;;;;;;5086581;28;19966;-71
2024/02/14 10:28:39;;;;;;;;;;;;;;;;;;5087634;28;19916;-69
2024/02/14 10:31:05;;;;;;;;;;;;;;;;;;5070079;28;19919;-71
2024/02/14 10:33:31;;;;;;;;;;;;;;;;;;5084823;28;19973;-71
2024/02/14 10:35:57;;;;;;;;;;;;;;;;;;5071332;28;19920;-71
2024/02/14 10:38:23;;;;;;;;;;;;;;;;;;5085749;28;19916;-70
2024/02/14 10:40:49;;;;;;;;;;;;;;;;;;5088949;28;19912;-68
2024/02/14 10:43:15;;;;;;;;;;;;;;;;;;5090812;28;19923;-69
2024/02/14 10:45:42;;;;;;;;;;;;;;;;;;5093689;28;19935;-70
2024/02/14 10:48:08;;;;;;;;;;;;;;;;;;5072866;28;19923;-71
2024/02/14 10:50:37;;;;;;;;;;;;;;;;;;5096120;28;19916;-69
2024/02/14 10:53:03;;;;;;;;;;;;;;;;;;5090370;28;19920;-73
2024/02/14 10:55:29;;;;;;;;;;;;;;;;;;5089411;28;19969;-69
2024/02/14 10:57:55;;;;;;;;;;;;;;;;;;5084957;28;19959;-69
2024/02/14 11:00:21;;;;;;;;;;;;;;;;;;5087620;28;19981;-69
2024/02/14 11:02:48;;;;;;;;;;;;;;;;;;5075119;28;19916;-71
2024/02/14 11:05:15;;;;;;;;;;;;;;;;;;5082507;28;20253;-72
2024/02/14 11:07:41;;;;;;;;;;;;;;;;;;5084181;28;20006;-69
2024/02/14 11:10:07;;;;;;;;;;;;;;;;;;5065146;28;20391;-72
2024/02/14 11:12:35;;;;;;;;;;;;;;;;;;5078597;28;19923;-70
2024/02/14 11:15:01;;;;;;;;;;;;;;;;;;5070117;28;20152;-73
2024/02/14 11:17:27;;;;;;;;;;;;;;;;;;5067405;28;20010;-72
2024/02/14 11:19:53;;;;;;;;;;;;;;;;;;5088933;28;19916;-67
2024/02/14 11:22:19;;;;;;;;;;;;;;;;;;5070511;28;19918;-70
2024/02/14 11:24:46;;;;;;;;;;;;;;;;;;5092702;28;19913;-68
2024/02/14 11:27:12;;;;;;;;;;;;;;;;;;5070267;28;20584;-71
2024/02/14 11:29:38;;;;;;;;;;;;;;;;;;5086150;28;19912;-70
2024/02/14 11:32:06;;;;;;;;;;;;;;;;;;5080411;28;19920;-70
2024/02/14 11:34:33;;;;;;;;;;;;;;;;;;5068012;28;19916;-69
2024/02/14 11:36:59;;;;;;;;;;;;;;;;;;5082151;28;20395;-69
2024/02/14 11:39:25;;;;;;;;;;;;;;;;;;5079636;28;19922;-69
2024/02/14 11:41:51;;;;;;;;;;;;;;;;;;5085076;28;19920;-67
2024/02/14 11:44:17;;;;;;;;;;;;;;;;;;5080479;28;19927;-69
2024/02/14 11:46:44;;;;;;;;;;;;;;;;;;5078661;28;19924;-72
2024/02/14 11:49:10;;;;;;;;;;;;;;;;;;5070852;28;20406;-69
2024/02/14 11:51:36;;;;;;;;;;;;;;;;;;5069168;28;19913;-70
2024/02/14 11:54:06;;;;;;;;;;;;;;;;;;5076541;28;19948;-70
2024/02/14 11:56:36;;;;;;;;;;;;;;;;;;5066214;28;19915;-71
2024/02/14 11:59:04;;;;;;;;;;;;;;;;;;5084346;28;19916;-70
2024/02/14 12:01:30;;;;;;;;;;;;;;;;;;5087345;28;19919;-71
2024/02/14 12:03:56;;;;;;;;;;;;;;;;;;5089769;28;20003;-71
2024/02/14 12:06:22;;;;;;;;;;;;;;;;;;5090574;28;19967;-71
2024/02/14 12:08:48;;;;;;;;;;;;;;;;;;5091926;28;20312;-70
2024/02/14 12:11:14;;;;;;;;;;;;;;;;;;5087872;28;19969;-70
2024/02/14 12:13:43;;;;;;;;;;;;;;;;;;5090722;28;19943;-70
2024/02/14 12:16:09;;;;;;;;;;;;;;;;;;5072116;28;19999;-70
2024/02/14 12:18:35;;;;;;;;;;;;;;;;;;5083398;28;20114;-70
2024/02/14 12:21:01;;;;;;;;;;;;;;;;;;5091349;28;19916;-70
2024/02/14 12:23:27;;;;;;;;;;;;;;;;;;5073105;28;20008;-70
2024/02/14 12:25:53;;;;;;;;;;;;;;;;;;5084330;28;19932;-70
2024/02/14 12:28:19;;;;;;;;;;;;;;;;;;5091328;28;19926;-70
2024/02/14 12:30:45;;;;;;;;;;;;;;;;;;5092239;28;19908;-70
2024/02/14 12:33:11;;;;;;;;;;;;;;;;;;5073009;28;19916;-69
2024/02/14 12:35:41;;;;;;;;;;;;;;;;;;5089503;28;19912;-68
2024/02/14 12:38:09;;;;;;;;;;;;;;;;;;5090194;28;20348;-70
2024/02/14 12:40:35;;;;;;;;;;;;;;;;;;5090911;28;19916;-71
2024/02/14 12:43:01;;;;;;;;;;;;;;;;;;5088771;28;20026;-72
2024/02/14 12:45:27;;;;;;;;;;;;;;;;;;5087893;28;20402;-72
2024/02/14 12:47:53;;;;;;;;;;;;;;;;;;5088231;28;20015;-73
2024/02/14 12:50:22;;;;;;;;;;;;;;;;;;5071405;28;19938;-68
2024/02/14 12:52:48;;;;;;;;;;;;;;;;;;5089684;28;20020;-70
2024/02/14 12:55:15;;;;;;;;;;;;;;;;;;5089651;28;19959;-69
2024/02/14 12:57:42;;;;;;;;;;;;;;;;;;5088810;28;19912;-69
2024/02/14 13:00:11;;;;;;;;;;;;;;;;;;5089646;28;20515;-70
2024/02/14 13:02:38;;;;;;;;;;;;;;;;;;5071741;28;19919;-70
2024/02/14 13:05:04;;;;;;;;;;;;;;;;;;5090494;28;19942;-70
2024/02/14 13:07:30;;;;;;;;;;;;;;;;;;5088316;28;20003;-69
2024/02/14 13:12:27;;;;;;;;;;;;;;;;;;5086100;27;19921;-69
2024/02/14 13:14:53;;;;;;;;;;;;;;;;;;5088664;28;19920;-69
2024/02/14 13:17:19;;;;;;;;;;;;;;;;;;5078746;28;20012;-67
2024/02/14 13:19:45;;;;;;;;;;;;;;;;;;5086363;28;20400;-69
2024/02/14 13:24:12;;;;;;;;;;;;;;;;;;4761317;27;10275260;-68
2024/02/14 13:29:09;;;;;;;;;;;;;;;;;;5084494;28;19923;-69
2024/02/14 13:31:35;;;;;;;;;;;;;;;;;;5086858;28;19912;-69
2024/02/14 13:34:03;;;;;;;;;;;;;;;;;;5086717;28;19916;-68
2024/02/14 13:36:29;;;;;;;;;;;;;;;;;;5087884;28;19920;-67
2024/02/14 13:38:55;;;;;;;;;;;;;;;;;;5086522;28;19916;-67
2024/02/14 13:41:23;;;;;;;;;;;;;;;;;;5087172;28;19908;-68
2024/02/14 13:43:48;;;;;;;;;;;;;;;;;;5084186;28;19920;-68
2024/02/14 13:46:15;;;;;;;;;;;;;;;;;;5087552;28;19934;-68
2024/02/14 13:53:33;;;;;;;;;;;;;;;;;;5086945;27;19916;-69
2024/02/14 13:55:59;;;;;;;;;;;;;;;;;;5088248;28;20266;-67
2024/02/14 14:00:56;;;;;;;;;;;;;;;;;;5070979;28;19939;-68
2024/02/14 14:06:09;;;;;;;;;;;;;;;;;;5110395;27;20446;-68
2024/02/14 14:08:38;;;;;;;;;;;;;;;;;;5110173;28;19919;-69
2024/02/14 14:11:04;;;;;;;;;;;;;;;;;;5110993;28;19908;-69
2024/02/14 14:13:33;;;;;;;;;;;;;;;;;;5110512;28;19912;-69
2024/02/14 14:15:59;;;;;;;;;;;;;;;;;;5110886;28;19912;-68
2024/02/14 14:18:24;;;;;;;;;;;;;;;;;;5111269;28;20279;-69
2024/02/14 14:20:50;;;;;;;;;;;;;;;;;;5110862;28;20287;-69
2024/02/14 14:23:16;;;;;;;;;;;;;;;;;;5109754;28;20194;-69
2024/02/14 14:25:42;;;;;;;;;;;;;;;;;;5108850;28;20317;-69
2024/02/14 14:28:48;;;;;;;;;;;;;;;;;;5109947;27;19912;-67
2024/02/14 14:31:14;;;;;;;;;;;;;;;;;;5109764;28;20307;-69
2024/02/14 14:33:42;;;;;;;;;;;;;;;;;;5109450;28;19915;-68
2024/02/14 14:36:08;;;;;;;;;;;;;;;;;;5109859;28;19934;-68
2024/02/14 14:38:34;;;;;;;;;;;;;;;;;;5111120;28;19908;-69
2024/02/14 14:41:58;;;;;;;;;;;;;;;;;;5091012;28;19923;-69
2024/02/14 14:49:00;;;;;;;;;;;;;;;;;;5111217;27;20291;-69
2024/02/14 14:54:02;;;;;;;;;;;;;;;;;;5070997;28;20406;-68
2024/02/14 14:56:29;;;;;;;;;;;;;;;;;;5070507;28;20007;-68
2024/02/14 14:58:55;;;;;;;;;;;;;;;;;;5070720;28;19909;-67
2024/02/14 15:06:07;;;;;;;;;;;;;;;;;;5091291;27;19916;-69
2024/02/14 15:08:32;;;;;;;;;;;;;;;;;;5090659;28;20003;-68
2024/02/14 15:12:26;;;;;;;;;;;;;;;;;;5091079;27;19916;-68
2024/02/14 15:14:52;;;;;;;;;;;;;;;;;;5091109;28;19947;-68
2024/02/14 15:17:19;;;;;;;;;;;;;;;;;;5090665;28;20049;-67
2024/02/14 15:19:45;;;;;;;;;;;;;;;;;;5091027;28;19909;-68
2024/02/14 15:22:11;;;;;;;;;;;;;;;;;;5090968;28;19936;-68
2024/02/14 15:24:39;;;;;;;;;;;;;;;;;;5089216;28;19909;-68
2024/02/14 15:27:54;;;;;;;;;;;;;;;;;;5091329;28;19916;-70
2024/02/14 15:34:41;;;;;;;;;;;;;;;;;;5111337;28;19919;-69
2024/02/14 15:37:08;;;;;;;;;;;;;;;;;;5111163;28;20003;-69
2024/02/14 15:39:34;;;;;;;;;;;;;;;;;;5111602;28;19914;-69
2024/02/14 15:42:00;;;;;;;;;;;;;;;;;;5111463;28;19908;-69
2024/02/14 15:44:26;;;;;;;;;;;;;;;;;;5110914;28;19912;-68
2024/02/14 15:46:52;;;;;;;;;;;;;;;;;;5111664;28;19954;-69
2024/02/14 15:49:18;;;;;;;;;;;;;;;;;;5111441;28;19908;-69
2024/02/14 15:51:45;;;;;;;;;;;;;;;;;;5110734;28;19916;-69
2024/02/14 15:54:11;;;;;;;;;;;;;;;;;;5110638;28;19908;-68
2024/02/14 15:56:37;;;;;;;;;;;;;;;;;;5111265;28;19908;-69
2024/02/14 15:59:04;;;;;;;;;;;;;;;;;;5110863;28;19968;-69
2024/02/14 16:01:30;;;;;;;;;;;;;;;;;;5111097;28;20000;-69
2024/02/14 16:03:56;;;;;;;;;;;;;;;;;;5111149;28;20326;-69
2024/02/14 16:06:23;;;;;;;;;;;;;;;;;;5110789;28;20258;-69
2024/02/14 16:08:52;;;;;;;;;;;;;;;;;;5109918;28;19908;-69
2024/02/14 16:11:18;;;;;;;;;;;;;;;;;;5111187;28;19920;-70
2024/02/14 16:13:43;;;;;;;;;;;;;;;;;;5109306;28;19908;-69
2024/02/14 16:16:10;;;;;;;;;;;;;;;;;;5123965;28;19907;-69
2024/02/14 16:18:36;;;;;;;;;;;;;;;;;;5131152;27;19957;-69
2024/02/14 16:21:02;;;;;;;;;;;;;;;;;;5130882;27;19914;-68
2024/02/14 16:23:28;;;;;;;;;;;;;;;;;;5130819;27;20002;-69
2024/02/14 16:25:54;;;;;;;;;;;;;;;;;;5129591;28;20342;-69
2024/02/14 16:28:20;;;;;;;;;;;;;;;;;;5131115;27;20275;-70
2024/02/14 16:30:47;;;;;;;;;;;;;;;;;;5130803;27;19919;-69
2024/02/14 16:33:12;;;;;;;;;;;;;;;;;;5130988;27;19908;-70
2024/02/14 16:35:39;;;;;;;;;;;;;;;;;;5131067;27;19914;-70
2024/02/14 16:38:05;;;;;;;;;;;;;;;;;;5131027;27;20003;-69
2024/02/14 16:40:32;;;;;;;;;;;;;;;;;;5130958;27;20371;-69
2024/02/14 16:42:58;;;;;;;;;;;;;;;;;;5118849;27;19939;-69
2024/02/14 16:45:24;;;;;;;;;;;;;;;;;;5115854;28;19934;-68
2024/02/14 16:47:50;;;;;;;;;;;;;;;;;;5116809;28;19908;-69
2024/02/14 16:50:16;;;;;;;;;;;;;;;;;;5116942;28;19912;-69
2024/02/14 16:52:42;;;;;;;;;;;;;;;;;;5117047;28;19908;-68
2024/02/14 16:55:08;;;;;;;;;;;;;;;;;;5116817;27;20382;-68
2024/02/14 16:57:34;;;;;;;;;;;;;;;;;;5115584;28;19968;-68
2024/02/14 17:00:00;;;;;;;;;;;;;;;;;;5116859;28;19907;-68
2024/02/14 17:02:26;;;;;;;;;;;;;;;;;;5115089;28;19918;-68
2024/02/14 17:04:52;;;;;;;;;;;;;;;;;;5116823;27;19994;-69
2024/02/14 17:07:18;;;;;;;;;;;;;;;;;;5117028;28;19908;-68
2024/02/14 17:09:45;;;;;;;;;;;;;;;;;;5116124;28;20313;-68
2024/02/14 17:12:11;;;;;;;;;;;;;;;;;;5116563;28;19918;-69
2024/02/14 17:14:40;;;;;;;;;;;;;;;;;;5117092;28;19915;-68
2024/02/14 17:17:06;;;;;;;;;;;;;;;;;;5116075;28;19919;-69